sensor_id;sensor_type;location;lat;lon;timestamp;P1;durP1;ratioP1;P2;durP2;ratioP2
40621;SDS011;26324;52.040;11.528;2023-02-03T00:02:13;0.57;;;0.32;;
40621;SDS011;26324;52.040;11.528;2023-02-03T00:04:40;0.20;;;0.10;;
40621;SDS011;26324;52.040;11.528;2023-02-03T00:07:08;2.05;;;0.57;;
40621;SDS011;26324;52.040;11.528;2023-02-03T00:09:37;0.20;;;0.13;;
40621;SDS011;26324;52.040;11.528;2023-02-03T00:12:04;0.90;;;0.43;;
40621;SDS011;26324;52.040;11.528;2023-02-03T00:14:32;2.45;;;0.57;;
40621;SDS011;26324;52.040;11.528;2023-02-03T00:16:59;0.17;;;0.10;;
40621;SDS011;26324;52.040;11.528;2023-02-03T00:19:26;2.53;;;0.30;;
40621;SDS011;26324;52.040;11.528;2023-02-03T00:21:53;0.30;;;0.30;;
40621;SDS011;26324;52.040;11.528;2023-02-03T00:24:22;0.22;;;0.20;;
40621;SDS011;26324;52.040;11.528;2023-02-03T00:26:49;0.40;;;0.22;;
40621;SDS011;26324;52.040;11.528;2023-02-03T00:29:16;0.35;;;0.32;;
40621;SDS011;26324;52.040;11.528;2023-02-03T00:31:44;0.47;;;0.38;;
40621;SDS011;26324;52.040;11.528;2023-02-03T00:34:11;1.60;;;0.40;;
40621;SDS011;26324;52.040;11.528;2023-02-03T00:36:39;0.43;;;0.25;;
40621;SDS011;26324;52.040;11.528;2023-02-03T00:39:08;1.25;;;0.95;;
40621;SDS011;26324;52.040;11.528;2023-02-03T00:41:35;1.13;;;0.40;;
40621;SDS011;26324;52.040;11.528;2023-02-03T00:44:03;0.40;;;0.30;;
40621;SDS011;26324;52.040;11.528;2023-02-03T00:46:30;0.85;;;0.30;;
40621;SDS011;26324;52.040;11.528;2023-02-03T00:48:57;0.90;;;0.38;;
40621;SDS011;26324;52.040;11.528;2023-02-03T00:51:24;0.43;;;0.28;;
40621;SDS011;26324;52.040;11.528;2023-02-03T00:53:53;0.50;;;0.40;;
40621;SDS011;26324;52.040;11.528;2023-02-03T00:56:21;2.03;;;0.38;;
40621;SDS011;26324;52.040;11.528;2023-02-03T00:58:49;1.58;;;0.47;;
40621;SDS011;26324;52.040;11.528;2023-02-03T01:01:16;0.85;;;0.50;;
40621;SDS011;26324;52.040;11.528;2023-02-03T01:03:44;0.35;;;0.10;;
40621;SDS011;26324;52.040;11.528;2023-02-03T01:06:12;0.82;;;0.20;;
40621;SDS011;26324;52.040;11.528;2023-02-03T01:08:42;1.00;;;0.30;;
40621;SDS011;26324;52.040;11.528;2023-02-03T01:11:11;0.90;;;0.52;;
40621;SDS011;26324;52.040;11.528;2023-02-03T01:13:44;0.30;;;0.22;;
40621;SDS011;26324;52.040;11.528;2023-02-03T01:16:13;0.82;;;0.50;;
40621;SDS011;26324;52.040;11.528;2023-02-03T01:18:41;0.50;;;0.45;;
40621;SDS011;26324;52.040;11.528;2023-02-03T01:21:11;0.88;;;0.30;;
40621;SDS011;26324;52.040;11.528;2023-02-03T01:23:43;0.95;;;0.60;;
40621;SDS011;26324;52.040;11.528;2023-02-03T01:26:12;0.70;;;0.30;;
40621;SDS011;26324;52.040;11.528;2023-02-03T01:28:41;1.00;;;0.25;;
40621;SDS011;26324;52.040;11.528;2023-02-03T01:31:11;1.35;;;0.43;;
40621;SDS011;26324;52.040;11.528;2023-02-03T01:33:45;0.85;;;0.65;;
40621;SDS011;26324;52.040;11.528;2023-02-03T01:36:18;0.80;;;0.50;;
40621;SDS011;26324;52.040;11.528;2023-02-03T01:38:46;1.48;;;0.25;;
40621;SDS011;26324;52.040;11.528;2023-02-03T01:41:15;0.90;;;0.40;;
40621;SDS011;26324;52.040;11.528;2023-02-03T01:43:45;0.57;;;0.30;;
40621;SDS011;26324;52.040;11.528;2023-02-03T01:46:38;0.38;;;0.35;;
40621;SDS011;26324;52.040;11.528;2023-02-03T01:49:17;0.28;;;0.20;;
40621;SDS011;26324;52.040;11.528;2023-02-03T01:51:50;0.30;;;0.10;;
40621;SDS011;26324;52.040;11.528;2023-02-03T01:54:23;1.02;;;0.38;;
40621;SDS011;26324;52.040;11.528;2023-02-03T01:56:58;0.35;;;0.13;;
40621;SDS011;26324;52.040;11.528;2023-02-03T01:59:29;0.85;;;0.30;;
40621;SDS011;26324;52.040;11.528;2023-02-03T02:01:59;1.48;;;0.80;;
40621;SDS011;26324;52.040;11.528;2023-02-03T02:04:30;1.08;;;0.30;;
40621;SDS011;26324;52.040;11.528;2023-02-03T02:07:02;0.52;;;0.35;;
40621;SDS011;26324;52.040;11.528;2023-02-03T02:09:31;0.47;;;0.40;;
40621;SDS011;26324;52.040;11.528;2023-02-03T02:11:59;0.88;;;0.50;;
40621;SDS011;26324;52.040;11.528;2023-02-03T02:14:27;1.40;;;0.70;;
40621;SDS011;26324;52.040;11.528;2023-02-03T02:17:00;0.88;;;0.38;;
40621;SDS011;26324;52.040;11.528;2023-02-03T02:22:37;1.27;;;0.70;;
40621;SDS011;26324;52.040;11.528;2023-02-03T02:39:00;11.73;;;3.25;;
40621;SDS011;26324;52.040;11.528;2023-02-03T02:41:55;5.20;;;2.92;;
40621;SDS011;26324;52.040;11.528;2023-02-03T02:44:32;6.32;;;2.45;;
40621;SDS011;26324;52.040;11.528;2023-02-03T02:47:05;6.10;;;2.33;;
40621;SDS011;26324;52.040;11.528;2023-02-03T02:55:15;5.95;;;3.30;;
40621;SDS011;26324;52.040;11.528;2023-02-03T02:57:46;8.95;;;3.20;;
40621;SDS011;26324;52.040;11.528;2023-02-03T03:00:17;8.70;;;3.72;;
40621;SDS011;26324;52.040;11.528;2023-02-03T03:02:45;8.35;;;4.25;;
40621;SDS011;26324;52.040;11.528;2023-02-03T03:05:13;16.33;;;4.22;;
40621;SDS011;26324;52.040;11.528;2023-02-03T03:07:48;12.13;;;4.38;;
40621;SDS011;26324;52.040;11.528;2023-02-03T03:10:22;7.47;;;3.42;;
40621;SDS011;26324;52.040;11.528;2023-02-03T03:12:56;9.80;;;3.85;;
40621;SDS011;26324;52.040;11.528;2023-02-03T03:15:29;8.65;;;4.05;;
40621;SDS011;26324;52.040;11.528;2023-02-03T03:18:05;8.63;;;3.42;;
40621;SDS011;26324;52.040;11.528;2023-02-03T03:20:39;6.07;;;3.28;;
40621;SDS011;26324;52.040;11.528;2023-02-03T03:23:10;8.05;;;4.57;;
40621;SDS011;26324;52.040;11.528;2023-02-03T03:25:48;5.30;;;3.00;;
40621;SDS011;26324;52.040;11.528;2023-02-03T03:28:21;8.68;;;3.90;;
40621;SDS011;26324;52.040;11.528;2023-02-03T03:30:53;7.95;;;3.70;;
40621;SDS011;26324;52.040;11.528;2023-02-03T03:33:21;7.32;;;4.20;;
40621;SDS011;26324;52.040;11.528;2023-02-03T03:38:23;9.30;;;3.95;;
40621;SDS011;26324;52.040;11.528;2023-02-03T03:41:13;7.90;;;3.67;;
40621;SDS011;26324;52.040;11.528;2023-02-03T03:43:54;6.03;;;2.95;;
40621;SDS011;26324;52.040;11.528;2023-02-03T03:46:26;6.43;;;2.92;;
40621;SDS011;26324;52.040;11.528;2023-02-03T03:48:57;6.93;;;3.67;;
40621;SDS011;26324;52.040;11.528;2023-02-03T03:54:16;6.35;;;3.15;;
40621;SDS011;26324;52.040;11.528;2023-02-03T03:56:50;10.50;;;3.22;;
40621;SDS011;26324;52.040;11.528;2023-02-03T03:59:28;5.70;;;2.90;;
40621;SDS011;26324;52.040;11.528;2023-02-03T04:02:00;7.60;;;3.78;;
40621;SDS011;26324;52.040;11.528;2023-02-03T04:04:34;4.55;;;2.95;;
40621;SDS011;26324;52.040;11.528;2023-02-03T04:07:03;5.32;;;2.95;;
40621;SDS011;26324;52.040;11.528;2023-02-03T04:09:30;7.03;;;3.58;;
40621;SDS011;26324;52.040;11.528;2023-02-03T04:11:58;8.98;;;3.45;;
40621;SDS011;26324;52.040;11.528;2023-02-03T04:14:28;7.00;;;2.97;;
40621;SDS011;26324;52.040;11.528;2023-02-03T04:19:24;8.75;;;3.47;;
40621;SDS011;26324;52.040;11.528;2023-02-03T04:21:52;5.05;;;2.88;;
40621;SDS011;26324;52.040;11.528;2023-02-03T04:24:19;7.05;;;3.10;;
40621;SDS011;26324;52.040;11.528;2023-02-03T04:26:46;5.07;;;2.80;;
40621;SDS011;26324;52.040;11.528;2023-02-03T04:29:17;9.73;;;2.97;;
40621;SDS011;26324;52.040;11.528;2023-02-03T04:31:46;5.57;;;2.65;;
40621;SDS011;26324;52.040;11.528;2023-02-03T04:36:40;5.13;;;2.67;;
40621;SDS011;26324;52.040;11.528;2023-02-03T04:39:07;7.13;;;3.30;;
40621;SDS011;26324;52.040;11.528;2023-02-03T04:41:35;8.32;;;3.08;;
40621;SDS011;26324;52.040;11.528;2023-02-03T04:44:02;5.00;;;2.83;;
40621;SDS011;26324;52.040;11.528;2023-02-03T04:46:29;4.63;;;2.13;;
40621;SDS011;26324;52.040;11.528;2023-02-03T04:48:56;7.50;;;3.17;;
40621;SDS011;26324;52.040;11.528;2023-02-03T04:51:24;5.13;;;2.30;;
40621;SDS011;26324;52.040;11.528;2023-02-03T04:53:51;6.53;;;2.65;;
40621;SDS011;26324;52.040;11.528;2023-02-03T04:56:21;5.13;;;2.50;;
40621;SDS011;26324;52.040;11.528;2023-02-03T04:58:49;4.75;;;2.50;;
40621;SDS011;26324;52.040;11.528;2023-02-03T05:01:16;3.72;;;2.53;;
40621;SDS011;26324;52.040;11.528;2023-02-03T05:03:43;4.57;;;2.95;;
40621;SDS011;26324;52.040;11.528;2023-02-03T05:08:40;3.85;;;2.55;;
40621;SDS011;26324;52.040;11.528;2023-02-03T05:11:09;4.57;;;2.25;;
40621;SDS011;26324;52.040;11.528;2023-02-03T05:13:37;4.43;;;2.50;;
40621;SDS011;26324;52.040;11.528;2023-02-03T05:16:07;5.68;;;2.53;;
40621;SDS011;26324;52.040;11.528;2023-02-03T05:18:35;4.53;;;2.58;;
40621;SDS011;26324;52.040;11.528;2023-02-03T05:21:02;3.85;;;2.28;;
40621;SDS011;26324;52.040;11.528;2023-02-03T05:23:29;6.07;;;2.40;;
40621;SDS011;26324;52.040;11.528;2023-02-03T05:25:57;4.45;;;2.33;;
40621;SDS011;26324;52.040;11.528;2023-02-03T05:28:28;7.57;;;2.88;;
40621;SDS011;26324;52.040;11.528;2023-02-03T05:30:59;3.95;;;2.20;;
40621;SDS011;26324;52.040;11.528;2023-02-03T05:33:27;5.22;;;2.40;;
40621;SDS011;26324;52.040;11.528;2023-02-03T05:35:55;4.35;;;2.80;;
40621;SDS011;26324;52.040;11.528;2023-02-03T05:38:22;5.20;;;1.92;;
40621;SDS011;26324;52.040;11.528;2023-02-03T05:40:50;5.57;;;2.20;;
40621;SDS011;26324;52.040;11.528;2023-02-03T05:43:43;6.45;;;2.35;;
40621;SDS011;26324;52.040;11.528;2023-02-03T05:46:10;5.50;;;2.35;;
40621;SDS011;26324;52.040;11.528;2023-02-03T05:48:37;6.32;;;2.53;;
40621;SDS011;26324;52.040;11.528;2023-02-03T05:51:05;4.55;;;2.28;;
40621;SDS011;26324;52.040;11.528;2023-02-03T05:53:32;3.53;;;2.10;;
40621;SDS011;26324;52.040;11.528;2023-02-03T05:55:59;4.65;;;2.20;;
40621;SDS011;26324;52.040;11.528;2023-02-03T05:58:26;5.20;;;2.55;;
40621;SDS011;26324;52.040;11.528;2023-02-03T06:00:54;2.92;;;1.98;;
40621;SDS011;26324;52.040;11.528;2023-02-03T06:03:21;4.18;;;1.92;;
40621;SDS011;26324;52.040;11.528;2023-02-03T06:05:48;4.75;;;1.83;;
40621;SDS011;26324;52.040;11.528;2023-02-03T06:08:16;4.88;;;1.85;;
40621;SDS011;26324;52.040;11.528;2023-02-03T06:10:43;3.20;;;2.28;;
40621;SDS011;26324;52.040;11.528;2023-02-03T06:13:11;9.27;;;2.97;;
40621;SDS011;26324;52.040;11.528;2023-02-03T06:15:40;4.47;;;2.88;;
40621;SDS011;26324;52.040;11.528;2023-02-03T06:18:08;5.57;;;2.15;;
40621;SDS011;26324;52.040;11.528;2023-02-03T06:20:35;2.53;;;1.55;;
40621;SDS011;26324;52.040;11.528;2023-02-03T06:23:03;4.65;;;2.13;;
40621;SDS011;26324;52.040;11.528;2023-02-03T06:25:31;4.47;;;1.88;;
40621;SDS011;26324;52.040;11.528;2023-02-03T06:28:00;4.38;;;1.77;;
40621;SDS011;26324;52.040;11.528;2023-02-03T06:30:29;7.18;;;3.13;;
40621;SDS011;26324;52.040;11.528;2023-02-03T06:32:59;4.72;;;2.60;;
40621;SDS011;26324;52.040;11.528;2023-02-03T06:37:53;2.47;;;1.50;;
40621;SDS011;26324;52.040;11.528;2023-02-03T06:40:21;4.22;;;2.22;;
40621;SDS011;26324;52.040;11.528;2023-02-03T06:42:48;3.97;;;1.85;;
40621;SDS011;26324;52.040;11.528;2023-02-03T06:45:17;4.20;;;1.80;;
40621;SDS011;26324;52.040;11.528;2023-02-03T06:47:46;3.55;;;1.90;;
40621;SDS011;26324;52.040;11.528;2023-02-03T06:50:14;4.93;;;2.40;;
40621;SDS011;26324;52.040;11.528;2023-02-03T06:52:41;5.25;;;1.90;;
40621;SDS011;26324;52.040;11.528;2023-02-03T06:55:09;3.88;;;1.52;;
40621;SDS011;26324;52.040;11.528;2023-02-03T06:57:43;5.07;;;1.15;;
40621;SDS011;26324;52.040;11.528;2023-02-03T07:00:12;7.68;;;2.03;;
40621;SDS011;26324;52.040;11.528;2023-02-03T07:02:55;3.80;;;2.42;;
40621;SDS011;26324;52.040;11.528;2023-02-03T07:05:24;2.72;;;1.75;;
40621;SDS011;26324;52.040;11.528;2023-02-03T07:07:53;4.00;;;1.60;;
40621;SDS011;26324;52.040;11.528;2023-02-03T07:10:20;6.05;;;2.00;;
40621;SDS011;26324;52.040;11.528;2023-02-03T07:12:49;3.95;;;1.83;;
40621;SDS011;26324;52.040;11.528;2023-02-03T07:17:45;2.83;;;1.52;;
40621;SDS011;26324;52.040;11.528;2023-02-03T07:20:20;5.28;;;1.52;;
40621;SDS011;26324;52.040;11.528;2023-02-03T07:22:52;4.13;;;1.67;;
40621;SDS011;26324;52.040;11.528;2023-02-03T07:25:20;4.00;;;1.88;;
40621;SDS011;26324;52.040;11.528;2023-02-03T07:27:48;4.88;;;1.70;;
40621;SDS011;26324;52.040;11.528;2023-02-03T07:30:15;2.55;;;1.15;;
40621;SDS011;26324;52.040;11.528;2023-02-03T07:32:46;4.95;;;1.50;;
40621;SDS011;26324;52.040;11.528;2023-02-03T07:35:15;3.50;;;1.80;;
40621;SDS011;26324;52.040;11.528;2023-02-03T07:37:42;2.42;;;1.42;;
40621;SDS011;26324;52.040;11.528;2023-02-03T07:40:10;3.60;;;2.15;;
40621;SDS011;26324;52.040;11.528;2023-02-03T07:42:40;4.75;;;1.67;;
40621;SDS011;26324;52.040;11.528;2023-02-03T07:45:09;2.35;;;1.40;;
40621;SDS011;26324;52.040;11.528;2023-02-03T07:47:37;2.63;;;1.20;;
40621;SDS011;26324;52.040;11.528;2023-02-03T07:50:04;2.45;;;1.73;;
40621;SDS011;26324;52.040;11.528;2023-02-03T07:52:33;3.92;;;1.30;;
40621;SDS011;26324;52.040;11.528;2023-02-03T07:55:00;4.65;;;0.95;;
40621;SDS011;26324;52.040;11.528;2023-02-03T07:57:28;4.32;;;1.35;;
40621;SDS011;26324;52.040;11.528;2023-02-03T07:59:55;5.22;;;1.70;;
40621;SDS011;26324;52.040;11.528;2023-02-03T08:02:22;5.50;;;1.60;;
40621;SDS011;26324;52.040;11.528;2023-02-03T08:04:49;3.13;;;1.08;;
40621;SDS011;26324;52.040;11.528;2023-02-03T08:07:17;2.60;;;1.63;;
40621;SDS011;26324;52.040;11.528;2023-02-03T08:09:44;3.35;;;1.27;;
40621;SDS011;26324;52.040;11.528;2023-02-03T08:12:11;2.17;;;1.58;;
40621;SDS011;26324;52.040;11.528;2023-02-03T08:14:38;1.38;;;0.98;;
40621;SDS011;26324;52.040;11.528;2023-02-03T08:17:06;2.55;;;0.93;;
40621;SDS011;26324;52.040;11.528;2023-02-03T08:19:33;2.63;;;1.38;;
40621;SDS011;26324;52.040;11.528;2023-02-03T08:22:00;2.58;;;1.60;;
40621;SDS011;26324;52.040;11.528;2023-02-03T08:24:31;2.00;;;1.17;;
40621;SDS011;26324;52.040;11.528;2023-02-03T08:26:59;3.83;;;1.45;;
40621;SDS011;26324;52.040;11.528;2023-02-03T08:29:26;3.30;;;1.67;;
40621;SDS011;26324;52.040;11.528;2023-02-03T08:31:56;2.15;;;0.98;;
40621;SDS011;26324;52.040;11.528;2023-02-03T08:34:24;2.42;;;1.23;;
40621;SDS011;26324;52.040;11.528;2023-02-03T08:36:51;4.30;;;1.23;;
40621;SDS011;26324;52.040;11.528;2023-02-03T08:39:18;2.25;;;1.48;;
40621;SDS011;26324;52.040;11.528;2023-02-03T08:41:46;1.77;;;1.10;;
40621;SDS011;26324;52.040;11.528;2023-02-03T08:44:13;3.15;;;1.20;;
40621;SDS011;26324;52.040;11.528;2023-02-03T08:46:40;2.65;;;1.25;;
40621;SDS011;26324;52.040;11.528;2023-02-03T08:51:37;2.58;;;1.23;;
40621;SDS011;26324;52.040;11.528;2023-02-03T08:54:04;3.58;;;1.10;;
40621;SDS011;26324;52.040;11.528;2023-02-03T08:56:31;3.45;;;1.00;;
40621;SDS011;26324;52.040;11.528;2023-02-03T08:58:59;1.40;;;0.77;;
40621;SDS011;26324;52.040;11.528;2023-02-03T09:01:27;2.10;;;1.05;;
40621;SDS011;26324;52.040;11.528;2023-02-03T09:03:54;1.20;;;0.75;;
40621;SDS011;26324;52.040;11.528;2023-02-03T09:06:24;4.35;;;1.30;;
40621;SDS011;26324;52.040;11.528;2023-02-03T09:08:52;1.10;;;0.70;;
40621;SDS011;26324;52.040;11.528;2023-02-03T09:11:19;1.10;;;0.82;;
40621;SDS011;26324;52.040;11.528;2023-02-03T09:13:55;1.20;;;0.57;;
40621;SDS011;26324;52.040;11.528;2023-02-03T09:16:24;1.40;;;0.70;;
40621;SDS011;26324;52.040;11.528;2023-02-03T09:18:51;1.83;;;0.82;;
40621;SDS011;26324;52.040;11.528;2023-02-03T09:21:18;1.58;;;0.93;;
40621;SDS011;26324;52.040;11.528;2023-02-03T09:24:09;1.63;;;0.65;;
40621;SDS011;26324;52.040;11.528;2023-02-03T09:26:37;0.50;;;0.30;;
40621;SDS011;26324;52.040;11.528;2023-02-03T09:29:04;0.93;;;0.50;;
40621;SDS011;26324;52.040;11.528;2023-02-03T09:31:36;1.98;;;0.60;;
40621;SDS011;26324;52.040;11.528;2023-02-03T09:34:03;1.17;;;0.70;;
40621;SDS011;26324;52.040;11.528;2023-02-03T09:36:30;0.65;;;0.43;;
40621;SDS011;26324;52.040;11.528;2023-02-03T09:38:57;1.48;;;0.60;;
40621;SDS011;26324;52.040;11.528;2023-02-03T09:41:45;0.60;;;0.50;;
40621;SDS011;26324;52.040;11.528;2023-02-03T09:44:22;3.00;;;0.85;;
40621;SDS011;26324;52.040;11.528;2023-02-03T09:47:17;0.70;;;0.40;;
40621;SDS011;26324;52.040;11.528;2023-02-03T09:52:49;1.00;;;0.30;;
40621;SDS011;26324;52.040;11.528;2023-02-03T09:55:52;0.98;;;0.82;;
40621;SDS011;26324;52.040;11.528;2023-02-03T10:01:42;1.25;;;0.70;;
40621;SDS011;26324;52.040;11.528;2023-02-03T10:04:33;1.20;;;0.80;;
40621;SDS011;26324;52.040;11.528;2023-02-03T10:07:10;1.60;;;0.52;;
40621;SDS011;26324;52.040;11.528;2023-02-03T10:09:55;0.90;;;0.73;;
40621;SDS011;26324;52.040;11.528;2023-02-03T10:15:23;2.70;;;1.00;;
40621;SDS011;26324;52.040;11.528;2023-02-03T10:18:13;1.30;;;0.90;;
40621;SDS011;26324;52.040;11.528;2023-02-03T10:20:45;1.20;;;0.90;;
40621;SDS011;26324;52.040;11.528;2023-02-03T10:31:36;4.18;;;1.25;;
40621;SDS011;26324;52.040;11.528;2023-02-03T10:34:08;1.50;;;1.05;;
40621;SDS011;26324;52.040;11.528;2023-02-03T10:36:41;1.90;;;1.27;;
40621;SDS011;26324;52.040;11.528;2023-02-03T10:39:20;4.18;;;1.58;;
40621;SDS011;26324;52.040;11.528;2023-02-03T10:42:00;4.00;;;1.15;;
40621;SDS011;26324;52.040;11.528;2023-02-03T10:44:42;3.85;;;2.17;;
40621;SDS011;26324;52.040;11.528;2023-02-03T10:47:18;2.28;;;1.15;;
40621;SDS011;26324;52.040;11.528;2023-02-03T10:50:02;3.00;;;1.70;;
40621;SDS011;26324;52.040;11.528;2023-02-03T10:52:35;2.28;;;0.80;;
40621;SDS011;26324;52.040;11.528;2023-02-03T10:55:06;4.80;;;1.58;;
40621;SDS011;26324;52.040;11.528;2023-02-03T10:57:55;4.53;;;1.50;;
40621;SDS011;26324;52.040;11.528;2023-02-03T11:00:31;3.53;;;1.50;;
40621;SDS011;26324;52.040;11.528;2023-02-03T11:03:07;2.58;;;1.05;;
40621;SDS011;26324;52.040;11.528;2023-02-03T11:08:52;1.65;;;0.80;;
40621;SDS011;26324;52.040;11.528;2023-02-03T11:11:21;5.05;;;1.25;;
40621;SDS011;26324;52.040;11.528;2023-02-03T11:13:55;1.88;;;0.95;;
40621;SDS011;26324;52.040;11.528;2023-02-03T11:16:31;2.83;;;0.70;;
40621;SDS011;26324;52.040;11.528;2023-02-03T11:19:06;0.20;;;0.17;;
40621;SDS011;26324;52.040;11.528;2023-02-03T11:21:50;1.60;;;0.43;;
40621;SDS011;26324;52.040;11.528;2023-02-03T11:24:20;0.38;;;0.22;;
40621;SDS011;26324;52.040;11.528;2023-02-03T11:27:00;2.05;;;0.60;;
40621;SDS011;26324;52.040;11.528;2023-02-03T11:29:33;2.58;;;0.38;;
40621;SDS011;26324;52.040;11.528;2023-02-03T11:32:14;1.95;;;0.13;;
40621;SDS011;26324;52.040;11.528;2023-02-03T11:35:26;0.52;;;0.28;;
40621;SDS011;26324;52.040;11.528;2023-02-03T11:37:53;0.30;;;0.17;;
40621;SDS011;26324;52.040;11.528;2023-02-03T11:40:23;1.77;;;0.82;;
40621;SDS011;26324;52.040;11.528;2023-02-03T11:45:36;2.28;;;0.30;;
40621;SDS011;26324;52.040;11.528;2023-02-03T11:56:25;1.08;;;0.30;;
40621;SDS011;26324;52.040;11.528;2023-02-03T12:11:10;0.17;;;0.10;;
40621;SDS011;26324;52.040;11.528;2023-02-03T12:22:46;3.50;;;1.08;;
40621;SDS011;26324;52.040;11.528;2023-02-03T12:31:35;3.78;;;0.75;;
40621;SDS011;26324;52.040;11.528;2023-02-03T12:34:37;1.92;;;0.43;;
40621;SDS011;26324;52.040;11.528;2023-02-03T12:37:13;1.70;;;0.35;;
40621;SDS011;26324;52.040;11.528;2023-02-03T12:39:47;4.80;;;1.33;;
40621;SDS011;26324;52.040;11.528;2023-02-03T12:42:23;5.57;;;1.00;;
40621;SDS011;26324;52.040;11.528;2023-02-03T12:51:28;5.18;;;0.38;;
40621;SDS011;26324;52.040;11.528;2023-02-03T12:54:17;0.88;;;0.30;;
40621;SDS011;26324;52.040;11.528;2023-02-03T12:57:10;6.38;;;1.23;;
40621;SDS011;26324;52.040;11.528;2023-02-03T12:59:40;2.80;;;0.60;;
40621;SDS011;26324;52.040;11.528;2023-02-03T13:02:11;2.50;;;0.32;;
40621;SDS011;26324;52.040;11.528;2023-02-03T13:04:58;5.30;;;1.27;;
40621;SDS011;26324;52.040;11.528;2023-02-03T13:07:46;2.70;;;0.63;;
40621;SDS011;26324;52.040;11.528;2023-02-03T13:13:07;5.82;;;1.10;;
40621;SDS011;26324;52.040;11.528;2023-02-03T13:15:41;2.92;;;0.60;;
40621;SDS011;26324;52.040;11.528;2023-02-03T13:18:30;3.42;;;0.70;;
40621;SDS011;26324;52.040;11.528;2023-02-03T13:20:59;0.57;;;0.20;;
40621;SDS011;26324;52.040;11.528;2023-02-03T13:23:28;3.65;;;0.57;;
40621;SDS011;26324;52.040;11.528;2023-02-03T13:26:08;5.97;;;0.85;;
40621;SDS011;26324;52.040;11.528;2023-02-03T13:37:25;3.80;;;0.55;;
40621;SDS011;26324;52.040;11.528;2023-02-03T13:40:48;0.30;;;0.15;;
40621;SDS011;26324;52.040;11.528;2023-02-03T13:42:58;5.20;;;0.60;;
40621;SDS011;26324;52.040;11.528;2023-02-03T13:45:36;1.05;;;0.63;;
40621;SDS011;26324;52.040;11.528;2023-02-03T13:48:13;11.35;;;1.60;;
40621;SDS011;26324;52.040;11.528;2023-02-03T13:50:44;11.77;;;1.58;;
40621;SDS011;26324;52.040;11.528;2023-02-03T13:53:17;1.80;;;0.30;;
40621;SDS011;26324;52.040;11.528;2023-02-03T13:58:26;10.38;;;0.68;;
40621;SDS011;26324;52.040;11.528;2023-02-03T14:00:58;5.15;;;0.63;;
40621;SDS011;26324;52.040;11.528;2023-02-03T14:05:56;13.70;;;1.42;;
40621;SDS011;26324;52.040;11.528;2023-02-03T14:14:02;6.90;;;1.38;;
40621;SDS011;26324;52.040;11.528;2023-02-03T14:16:49;5.80;;;0.60;;
40621;SDS011;26324;52.040;11.528;2023-02-03T14:24:20;14.15;;;1.15;;
40621;SDS011;26324;52.040;11.528;2023-02-03T14:26:52;9.35;;;0.88;;
40621;SDS011;26324;52.040;11.528;2023-02-03T14:29:27;1.40;;;0.25;;
40621;SDS011;26324;52.040;11.528;2023-02-03T14:31:58;13.55;;;1.45;;
40621;SDS011;26324;52.040;11.528;2023-02-03T14:34:32;3.63;;;0.47;;
40621;SDS011;26324;52.040;11.528;2023-02-03T14:37:20;6.13;;;1.10;;
40621;SDS011;26324;52.040;11.528;2023-02-03T14:46:42;8.82;;;1.17;;
40621;SDS011;26324;52.040;11.528;2023-02-03T14:48:54;4.97;;;0.90;;
40621;SDS011;26324;52.040;11.528;2023-02-03T14:57:34;6.20;;;0.57;;
40621;SDS011;26324;52.040;11.528;2023-02-03T15:05:34;3.42;;;0.82;;
40621;SDS011;26324;52.040;11.528;2023-02-03T15:08:04;8.20;;;1.38;;
40621;SDS011;26324;52.040;11.528;2023-02-03T15:13:51;5.70;;;0.60;;
40621;SDS011;26324;52.040;11.528;2023-02-03T15:16:20;0.47;;;0.20;;
40621;SDS011;26324;52.040;11.528;2023-02-03T15:18:57;2.97;;;1.00;;
40621;SDS011;26324;52.040;11.528;2023-02-03T15:21:30;7.00;;;0.75;;
40621;SDS011;26324;52.040;11.528;2023-02-03T15:23:57;4.15;;;1.15;;
40621;SDS011;26324;52.040;11.528;2023-02-03T15:26:25;2.42;;;0.40;;
40621;SDS011;26324;52.040;11.528;2023-02-03T15:28:56;8.35;;;1.35;;
40621;SDS011;26324;52.040;11.528;2023-02-03T15:31:30;5.63;;;0.57;;
40621;SDS011;26324;52.040;11.528;2023-02-03T15:34:14;2.00;;;0.45;;
40621;SDS011;26324;52.040;11.528;2023-02-03T15:36:46;1.08;;;0.30;;
40621;SDS011;26324;52.040;11.528;2023-02-03T15:39:18;1.65;;;0.47;;
40621;SDS011;26324;52.040;11.528;2023-02-03T15:42:22;2.65;;;1.08;;
40621;SDS011;26324;52.040;11.528;2023-02-03T15:48:16;3.17;;;0.85;;
40621;SDS011;26324;52.040;11.528;2023-02-03T15:51:05;4.80;;;1.75;;
40621;SDS011;26324;52.040;11.528;2023-02-03T15:53:42;3.10;;;0.60;;
40621;SDS011;26324;52.040;11.528;2023-02-03T15:56:18;0.43;;;0.28;;
40621;SDS011;26324;52.040;11.528;2023-02-03T15:58:48;1.63;;;0.17;;
40621;SDS011;26324;52.040;11.528;2023-02-03T16:01:18;2.70;;;1.48;;
40621;SDS011;26324;52.040;11.528;2023-02-03T16:03:53;2.80;;;0.45;;
40621;SDS011;26324;52.040;11.528;2023-02-03T16:08:53;5.57;;;0.93;;
40621;SDS011;26324;52.040;11.528;2023-02-03T16:13:52;8.02;;;0.80;;
40621;SDS011;26324;52.040;11.528;2023-02-03T16:16:30;4.90;;;1.13;;
40621;SDS011;26324;52.040;11.528;2023-02-03T16:19:15;5.85;;;0.73;;
40621;SDS011;26324;52.040;11.528;2023-02-03T16:29:54;1.67;;;0.10;;
40621;SDS011;26324;52.040;11.528;2023-02-03T16:35:54;0.65;;;0.30;;
40621;SDS011;26324;52.040;11.528;2023-02-03T16:38:44;1.65;;;0.82;;
40621;SDS011;26324;52.040;11.528;2023-02-03T16:41:31;5.30;;;0.63;;
40621;SDS011;26324;52.040;11.528;2023-02-03T16:44:17;2.10;;;0.93;;
40621;SDS011;26324;52.040;11.528;2023-02-03T16:47:08;3.13;;;1.00;;
40621;SDS011;26324;52.040;11.528;2023-02-03T16:50:11;8.20;;;2.15;;
40621;SDS011;26324;52.040;11.528;2023-02-03T16:53:05;3.60;;;1.27;;
40621;SDS011;26324;52.040;11.528;2023-02-03T16:55:38;8.02;;;1.38;;
40621;SDS011;26324;52.040;11.528;2023-02-03T16:58:09;7.53;;;1.27;;
40621;SDS011;26324;52.040;11.528;2023-02-03T17:00:39;6.43;;;1.10;;
40621;SDS011;26324;52.040;11.528;2023-02-03T17:03:11;5.13;;;0.98;;
40621;SDS011;26324;52.040;11.528;2023-02-03T17:05:47;3.80;;;0.88;;
40621;SDS011;26324;52.040;11.528;2023-02-03T17:08:18;4.82;;;1.05;;
40621;SDS011;26324;52.040;11.528;2023-02-03T17:10:48;5.63;;;1.00;;
40621;SDS011;26324;52.040;11.528;2023-02-03T17:13:18;4.50;;;0.80;;
40621;SDS011;26324;52.040;11.528;2023-02-03T17:15:48;8.48;;;1.33;;
40621;SDS011;26324;52.040;11.528;2023-02-03T17:18:18;4.22;;;0.60;;
40621;SDS011;26324;52.040;11.528;2023-02-03T17:20:46;8.98;;;1.27;;
40621;SDS011;26324;52.040;11.528;2023-02-03T17:23:14;6.95;;;1.45;;
40621;SDS011;26324;52.040;11.528;2023-02-03T17:25:45;3.92;;;0.93;;
40621;SDS011;26324;52.040;11.528;2023-02-03T17:28:14;1.73;;;0.82;;
40621;SDS011;26324;52.040;11.528;2023-02-03T17:30:41;5.05;;;1.08;;
40621;SDS011;26324;52.040;11.528;2023-02-03T17:33:12;2.70;;;0.47;;
40621;SDS011;26324;52.040;11.528;2023-02-03T17:35:40;2.15;;;0.45;;
40621;SDS011;26324;52.040;11.528;2023-02-03T17:38:10;1.85;;;0.73;;
40621;SDS011;26324;52.040;11.528;2023-02-03T17:40:42;6.38;;;1.60;;
40621;SDS011;26324;52.040;11.528;2023-02-03T17:43:27;4.25;;;1.02;;
40621;SDS011;26324;52.040;11.528;2023-02-03T17:46:17;5.35;;;0.75;;
40621;SDS011;26324;52.040;11.528;2023-02-03T17:49:04;3.33;;;0.82;;
40621;SDS011;26324;52.040;11.528;2023-02-03T17:51:48;5.45;;;0.95;;
40621;SDS011;26324;52.040;11.528;2023-02-03T17:54:33;5.65;;;1.40;;
40621;SDS011;26324;52.040;11.528;2023-02-03T17:57:00;4.80;;;1.05;;
40621;SDS011;26324;52.040;11.528;2023-02-03T17:59:27;8.82;;;1.50;;
40621;SDS011;26324;52.040;11.528;2023-02-03T18:01:55;5.18;;;1.35;;